EGC weather

Bergerac-Roumanière Airport
Bergerac/Roumanière, Nouvelle-Aquitaine, France

Public forecast

Using degrees Celsius for public forecast. Weather courtesy of forecast.io.

Current aviation weather report (METAR) for Bergerac-Roumanière Airport

Retrieved 2019/11/17 16:30 UTC (0 seconds ago):

LFBE 171630Z AUTO 08002KT CAVOK 06/03 Q1008 NOSIG

Aviation forecast (TAF) for Bergerac-Roumanière Airport

Retrieved 2019/11/17 12:50 UTC (4 hours ago):

TAF LFBE 171100Z 1712/1812 09005KT 9999 OVC010 BECMG 1712/1714 BKN020 BECMG 1723/1801 VRB02KT BECMG 1801/1803 3000 BR BECMG 1804/1806 OVC005 PROB40 1806/1809 0500 FG VV/// BECMG 1809/1811 BKN010